Dawson, Yukon Territory

1:20 PM PDT on March 23, 2017 (GMT -0700)
Dawson | | Change Station

Elev 1211 ft 64.05 °N, 139.13 °W | Updated 20 minutes ago

Mostly Cloudy
Mostly Cloudy
9 °F
Feels Like 9 °F
N
0
Wind Variable Wind from North

Today
High -- | Low -- °F
--% Chance of Precip.
Yesterday
High -- | Low -- °F
Precip. -- in
Pressure 29.93 in
Visibility 20.0 miles
Clouds Few 7500 ft
Scattered Clouds 10000 ft
Mostly Cloudy 15000 ft
Mostly Cloudy 21000 ft
Dew Point 0 °F
Humidity 67%
Rainfall 0.00 in
Snow Depth Not available.
8:04 AM 8:42 PM
Waning Crescent, 21% visible
METAR CYDA 232000Z 00000KT 20SM FEW075 SCT100 BKN150 BKN210 M13/M18 A2981 RMK AS2AC1AC2CI2 SLP134
Pressure 29.93 in
Visibility 20.0 miles
Clouds Few 7500 ft
Scattered Clouds 10000 ft
Mostly Cloudy 15000 ft
Mostly Cloudy 21000 ft
Dew Point 0 °F
Humidity 67%
Rainfall 0.00 in
Snow Depth Not available.
8:04 AM 8:42 PM
Waning Crescent, 21% visible
METAR CYDA 232000Z 00000KT 20SM FEW075 SCT100 BKN150 BKN210 M13/M18 A2981 RMK AS2AC1AC2CI2 SLP134

Get Severe Weather Alerts

Thanks for signing up!

Be on the lookout for a verification email in your inbox.

You'll start receiving the daily forecast at 8 AM.

×

10-Day Weather Forecast

Almanac

Astronomy

Mar. 23, 2017 Rise Set
Actual Time
Civil Twilight
Nautical Twilight
Astronomical Twilight
Moon
Length of Visible Light
Length of Day
Tomorrow will be .
, % of the Moon is Illuminated

Today's Extremes

Country Highs Country Lows

Community

WunderPhotos

Upload Photos

1,962,540 photos uploaded!

WunderBlog® & News

Nearby

Air Quality

  Air Quality AQ Index Pollutant
Not available.

Snow Depth

Station Depth Elevation

Earthquake Activity

City Distance Mag. Time & Date
Minimum magnitude displayed is 2.5.

Earthquake Activity

City Distance Mag. Time & Date
Minimum magnitude displayed is 2.5.

Coastal Water Temperatures

Place Temperature

Stations

Nearby Weather Stations

Station Location Temp. Windchill Dew Point Humidity Wind Precip. Elev Updated Type
                   

Watches & Warnings

There are currently no watches in effect.